createdAt,value
2022-11-22T00:00:48.610Z,96481.69
2022-11-22T00:03:15.120Z,96452.75
2022-11-22T00:05:41.676Z,96476.44
2022-11-22T00:08:08.369Z,96473.78
2022-11-22T00:10:35.263Z,96478.34
2022-11-22T00:13:02.343Z,96481.34
2022-11-22T00:15:29.731Z,96489.13
2022-11-22T00:17:56.531Z,96472.94
2022-11-22T00:20:26.170Z,96455.06
2022-11-22T00:22:58.262Z,96473.94
2022-11-22T00:25:24.800Z,96460.16
2022-11-22T00:27:51.631Z,96455.88
2022-11-22T00:30:18.576Z,96458.88
2022-11-22T00:32:45.207Z,96459.78
2022-11-22T00:35:12.285Z,96446.16
2022-11-22T00:37:38.817Z,96458.34
2022-11-22T00:40:06.680Z,96446.91
2022-11-22T00:42:33.172Z,96461.53
2022-11-22T00:44:59.659Z,96433.66
2022-11-22T00:47:26.137Z,96427.94
2022-11-22T00:49:54.776Z,96424.28
2022-11-22T00:52:21.294Z,96454.81
2022-11-22T00:54:54.268Z,96453.16
2022-11-22T00:57:21.534Z,96467.44
2022-11-22T00:59:48.036Z,96468.06
2022-11-22T01:02:14.563Z,96457.72
2022-11-22T01:04:41.140Z,96465.25
2022-11-22T01:07:07.741Z,96444.34
2022-11-22T01:09:34.386Z,96462.50
2022-11-22T01:12:00.939Z,96465.25
2022-11-22T01:14:27.486Z,96473.59
2022-11-22T01:16:56.094Z,96447.91
2022-11-22T01:19:22.670Z,96451.81
2022-11-22T01:21:49.169Z,96456.16
2022-11-22T01:24:15.680Z,96462.09
2022-11-22T01:26:42.221Z,96465.63
2022-11-22T01:29:08.765Z,96434.03
2022-11-22T01:31:35.393Z,96461.19
2022-11-22T01:34:05.424Z,96461.19
2022-11-22T01:36:32.096Z,96441.91
2022-11-22T01:38:58.585Z,96430.28
2022-11-22T01:41:27.497Z,96441.16
2022-11-22T01:43:53.986Z,96438.00
2022-11-22T01:46:39.640Z,96435.91
2022-11-22T01:49:11.643Z,96433.03
2022-11-22T01:51:44.149Z,96424.94
2022-11-22T01:54:17.409Z,96420.69
2022-11-22T01:56:50.359Z,96418.25
2022-11-22T01:59:21.848Z,96411.69
2022-11-22T02:01:48.913Z,96427.03
2022-11-22T02:04:18.544Z,96406.34
2022-11-22T02:07:08.750Z,96444.38
2022-11-22T02:09:37.564Z,96436.28
2022-11-22T02:12:06.535Z,96438.75
2022-11-22T02:14:34.678Z,96434.28
2022-11-22T02:17:01.169Z,96430.50
2022-11-22T02:19:33.276Z,96419.78
2022-11-22T02:22:14.061Z,96432.22
2022-11-22T02:24:48.762Z,96413.97
2022-11-22T02:27:15.300Z,96432.66
2022-11-22T02:29:42.594Z,96433.13
2022-11-22T02:32:09.090Z,96447.13
2022-11-22T02:34:50.100Z,96447.84
2022-11-22T02:37:21.997Z,96453.06
2022-11-22T02:39:53.124Z,96437.41
2022-11-22T02:42:20.137Z,96453.19
2022-11-22T02:44:46.672Z,96439.03
2022-11-22T02:47:13.226Z,96443.88
2022-11-22T02:49:39.766Z,96458.03
2022-11-22T02:52:06.382Z,96428.34
2022-11-22T02:54:32.909Z,96465.16
2022-11-22T02:57:02.996Z,96453.38
2022-11-22T02:59:32.064Z,96453.09
2022-11-22T03:02:03.065Z,96463.91
2022-11-22T03:04:32.410Z,96452.06
2022-11-22T03:07:02.139Z,96466.97
2022-11-22T03:09:29.663Z,96442.16
2022-11-22T03:11:56.750Z,96432.06
2022-11-22T03:14:23.569Z,96455.31
2022-11-22T03:16:50.186Z,96459.13
2022-11-22T03:19:17.199Z,96453.88
2022-11-22T03:21:44.251Z,96457.56
2022-11-22T03:24:11.294Z,96463.44
2022-11-22T03:26:38.530Z,96424.84
2022-11-22T03:29:05.338Z,96460.66
2022-11-22T03:31:36.544Z,96449.69
2022-11-22T03:34:06.225Z,96439.16
2022-11-22T03:36:34.826Z,96457.88
2022-11-22T03:39:04.460Z,96465.41
2022-11-22T03:41:30.956Z,96478.69
2022-11-22T03:43:57.454Z,96442.72
2022-11-22T03:46:24.253Z,96475.31
2022-11-22T03:48:50.769Z,96467.16
2022-11-22T03:51:17.486Z,96471.47
2022-11-22T03:53:44.066Z,96453.94
2022-11-22T03:56:10.597Z,96450.78
2022-11-22T03:58:37.158Z,96477.41
2022-11-22T04:01:06.447Z,96487.22
2022-11-22T04:03:35.387Z,96451.69
2022-11-22T04:06:01.914Z,96475.66
2022-11-22T04:08:28.439Z,96451.00
2022-11-22T04:10:55.012Z,96464.09
2022-11-22T04:13:21.703Z,96483.44
2022-11-22T04:15:48.174Z,96479.41
2022-11-22T04:18:15.053Z,96474.16
2022-11-22T04:21:00.404Z,96489.03
2022-11-22T04:23:33.531Z,96475.09
2022-11-22T04:26:00.469Z,96483.94
2022-11-22T04:28:46.986Z,96480.59
2022-11-22T04:31:32.683Z,96490.34
2022-11-22T04:33:59.170Z,96488.63
2022-11-22T04:36:25.663Z,96482.91
2022-11-22T04:38:52.242Z,96488.63
2022-11-22T04:41:18.748Z,96465.69
2022-11-22T04:44:03.736Z,96482.75
2022-11-22T04:46:31.457Z,96480.31
2022-11-22T04:48:58.110Z,96490.94
2022-11-22T04:51:43.005Z,96483.97
2022-11-22T04:54:09.590Z,96492.94
2022-11-22T04:56:36.958Z,96485.75
2022-11-22T04:59:03.530Z,96489.50
2022-11-22T05:01:30.117Z,96483.41
2022-11-22T05:03:56.728Z,96498.06
2022-11-22T05:06:23.487Z,96487.06
2022-11-22T05:08:49.944Z,96489.53
2022-11-22T05:11:16.502Z,96497.22
2022-11-22T05:13:43.179Z,96511.03
2022-11-22T05:16:14.224Z,96514.91
2022-11-22T05:18:41.284Z,96502.47
2022-11-22T05:21:13.617Z,96500.03
2022-11-22T05:23:55.217Z,96512.19
2022-11-22T05:26:23.575Z,96524.50
2022-11-22T05:28:50.391Z,96506.22
2022-11-22T05:31:23.154Z,96536.88
2022-11-22T05:33:52.047Z,96535.06
2022-11-22T05:36:19.337Z,96520.19
2022-11-22T05:38:45.818Z,96533.44
2022-11-22T05:41:13.921Z,96550.31
2022-11-22T05:43:43.825Z,96546.69
2022-11-22T05:46:23.811Z,96556.94
2022-11-22T05:48:52.254Z,96559.13
2022-11-22T05:51:20.799Z,96551.31
2022-11-22T05:53:47.621Z,96556.09
2022-11-22T05:56:16.631Z,96572.34
2022-11-22T05:58:43.495Z,96561.38
2022-11-22T06:01:19.683Z,96545.59
2022-11-22T06:03:47.157Z,96567.34
2022-11-22T06:06:14.048Z,96570.94
2022-11-22T06:08:46.901Z,96545.84
2022-11-22T06:11:15.762Z,96567.97
2022-11-22T06:13:46.756Z,96579.31
2022-11-22T06:16:14.537Z,96554.06
2022-11-22T06:18:44.983Z,96570.06
2022-11-22T06:21:18.375Z,96567.47
2022-11-22T06:23:45.468Z,96578.13
2022-11-22T06:26:17.203Z,96556.69
2022-11-22T06:28:44.777Z,96580.63
2022-11-22T06:31:20.649Z,96579.34
2022-11-22T06:33:47.790Z,96585.75
2022-11-22T06:36:16.773Z,96565.56
2022-11-22T06:38:44.889Z,96585.84
2022-11-22T06:41:14.581Z,96573.91
2022-11-22T06:43:48.222Z,96588.72
2022-11-22T06:46:16.738Z,96588.53
2022-11-22T06:48:47.181Z,96592.78
2022-11-22T06:51:19.355Z,96577.28
2022-11-22T06:53:48.556Z,96596.28
2022-11-22T06:56:23.241Z,96604.81
2022-11-22T06:58:51.128Z,96600.88
2022-11-22T07:01:23.436Z,96598.91
2022-11-22T07:03:50.737Z,96598.97
2022-11-22T07:06:19.466Z,96610.44
2022-11-22T07:08:46.728Z,96580.13
2022-11-22T07:11:19.529Z,96607.34
2022-11-22T07:13:46.903Z,96616.88
2022-11-22T07:16:19.056Z,96614.38
2022-11-22T07:18:49.495Z,96605.06
2022-11-22T07:21:20.542Z,96622.44
2022-11-22T07:23:49.165Z,96636.38
2022-11-22T07:26:20.727Z,96608.53
2022-11-22T07:28:47.835Z,96640.25
2022-11-22T07:31:17.250Z,96647.25
2022-11-22T07:33:46.383Z,96648.47
2022-11-22T07:36:16.913Z,96651.56
2022-11-22T07:38:43.862Z,96660.56
2022-11-22T07:41:10.691Z,96662.94
2022-11-22T07:43:37.598Z,96625.13
2022-11-22T07:46:06.713Z,96644.41
2022-11-22T07:48:33.785Z,96679.38
2022-11-22T07:51:05.050Z,96670.34
2022-11-22T07:53:32.035Z,96649.78
2022-11-22T07:56:02.243Z,96680.09
2022-11-22T07:58:28.804Z,96679.34
2022-11-22T08:00:56.046Z,96679.75
2022-11-22T08:03:28.641Z,96681.03
2022-11-22T08:06:03.638Z,96689.81
2022-11-22T08:08:31.285Z,96681.34
2022-11-22T08:10:58.181Z,96671.97
2022-11-22T08:13:24.876Z,96694.84
2022-11-22T08:15:54.599Z,96695.31
2022-11-22T08:18:22.422Z,96700.69
2022-11-22T08:20:52.361Z,96700.88
2022-11-22T08:23:22.382Z,96662.66
2022-11-22T08:25:52.345Z,96672.91
2022-11-22T08:28:22.056Z,96699.78
2022-11-22T08:30:58.721Z,96702.31
2022-11-22T08:33:25.469Z,96678.63
2022-11-22T08:35:52.009Z,96701.00
2022-11-22T08:38:21.857Z,96693.81
2022-11-22T08:40:53.017Z,96697.53
2022-11-22T08:43:20.449Z,96706.81
2022-11-22T08:45:53.391Z,96673.72
2022-11-22T08:48:22.471Z,96692.16
2022-11-22T08:50:57.835Z,96715.28
2022-11-22T08:53:25.824Z,96705.41
2022-11-22T08:55:53.105Z,96687.53
2022-11-22T08:58:20.890Z,96649.81
2022-11-22T09:00:51.159Z,96685.91
2022-11-22T09:03:20.399Z,96695.09
2022-11-22T09:08:40.467Z,96672.53
2022-11-22T09:11:12.973Z,96673.72
2022-11-22T09:13:40.253Z,96685.28
2022-11-22T09:16:12.748Z,96682.88
2022-11-22T09:18:40.029Z,96680.81
2022-11-22T09:21:15.872Z,96666.00
2022-11-22T09:23:48.179Z,96670.25
2022-11-22T09:26:20.392Z,96672.66
2022-11-22T09:28:48.323Z,96647.31
2022-11-22T09:31:21.836Z,96671.72
2022-11-22T09:33:51.911Z,96647.88
2022-11-22T09:36:28.803Z,96681.13
2022-11-22T09:38:56.428Z,96673.56
2022-11-22T09:41:50.402Z,96668.91
2022-11-22T09:44:45.389Z,96661.66
2022-11-22T09:47:51.238Z,96676.75
2022-11-22T09:50:49.908Z,96664.78
2022-11-22T09:53:45.041Z,96661.13
2022-11-22T09:56:15.731Z,96667.38
2022-11-22T09:58:51.763Z,96665.78
2022-11-22T10:01:28.264Z,96636.06
2022-11-22T10:04:02.643Z,96676.03
2022-11-22T10:06:35.856Z,96670.47
2022-11-22T10:09:36.854Z,96657.56
2022-11-22T10:12:42.441Z,96666.16
2022-11-22T10:15:35.943Z,96658.66
2022-11-22T10:18:11.647Z,96658.66
2022-11-22T10:20:47.293Z,96668.69
2022-11-22T10:23:24.175Z,96657.97
2022-11-22T10:26:07.887Z,96638.84
2022-11-22T10:28:38.290Z,96664.50
2022-11-22T10:31:26.232Z,96656.97
2022-11-22T10:34:05.501Z,96640.50
2022-11-22T10:36:39.245Z,96649.94
2022-11-22T10:39:24.452Z,96639.09
2022-11-22T10:42:08.963Z,96643.53
2022-11-22T10:44:45.352Z,96637.47
2022-11-22T10:47:20.557Z,96640.31
2022-11-22T10:50:10.323Z,96634.84
2022-11-22T10:53:00.565Z,96626.06
2022-11-22T10:55:54.531Z,96623.31
2022-11-22T10:58:50.217Z,96621.75
2022-11-22T11:01:18.916Z,96618.03
2022-11-22T11:03:53.284Z,96589.50
2022-11-22T11:06:43.428Z,96622.38
2022-11-22T11:12:22.251Z,96615.94
2022-11-22T11:14:54.937Z,96617.34
2022-11-22T11:17:28.181Z,96614.34
2022-11-22T11:19:59.705Z,96596.25
2022-11-22T11:22:58.531Z,96621.03
2022-11-22T11:25:35.027Z,96610.06
2022-11-22T11:28:08.645Z,96568.03
2022-11-22T11:30:50.991Z,96586.91
2022-11-22T11:33:20.658Z,96609.44
2022-11-22T11:35:50.824Z,96597.25
2022-11-22T11:38:48.169Z,96594.09
2022-11-22T11:41:29.610Z,96598.50
2022-11-22T11:43:58.864Z,96589.25
2022-11-22T11:46:29.977Z,96594.75
2022-11-22T11:49:15.822Z,96584.00
2022-11-22T11:51:46.379Z,96575.84
2022-11-22T11:54:22.778Z,96583.13
2022-11-22T11:56:58.236Z,96586.66
2022-11-22T11:59:36.689Z,96590.88
2022-11-22T12:02:19.162Z,96577.13
2022-11-22T12:05:05.762Z,96584.53
2022-11-22T12:07:35.072Z,96582.44
2022-11-22T12:10:22.563Z,96563.22
2022-11-22T12:13:04.176Z,96551.63
2022-11-22T12:16:19.875Z,96585.63
2022-11-22T12:18:56.605Z,96575.69
2022-11-22T12:21:45.765Z,96573.59
2022-11-22T12:25:09.164Z,96566.66
2022-11-22T12:27:17.688Z,96580.91
2022-11-22T12:29:44.655Z,96580.97
2022-11-22T12:32:14.065Z,96582.66
2022-11-22T12:34:45.783Z,96590.38
2022-11-22T12:37:29.768Z,96585.91
2022-11-22T12:40:02.110Z,96560.03
2022-11-22T12:42:56.053Z,96586.50
2022-11-22T12:45:35.139Z,96583.44
2022-11-22T12:48:09.430Z,96566.94
2022-11-22T12:50:49.360Z,96573.84
2022-11-22T12:53:21.865Z,96563.25
2022-11-22T12:55:59.225Z,96573.88
2022-11-22T12:58:44.415Z,96575.09
2022-11-22T13:01:30.275Z,96571.81
2022-11-22T13:04:11.186Z,96561.19
2022-11-22T13:06:51.300Z,96569.06
2022-11-22T13:09:41.012Z,96525.94
2022-11-22T13:12:16.158Z,96552.38
2022-11-22T13:14:50.431Z,96531.88
2022-11-22T13:17:19.678Z,96561.84
2022-11-22T13:20:00.131Z,96526.28
2022-11-22T13:22:38.190Z,96561.38
2022-11-22T13:25:26.482Z,96571.63
2022-11-22T13:27:53.644Z,96561.84
2022-11-22T13:30:25.579Z,96557.97
2022-11-22T13:32:58.132Z,96542.69
2022-11-22T13:35:36.496Z,96557.56
2022-11-22T13:38:06.027Z,96538.63
2022-11-22T13:40:35.400Z,96535.97
2022-11-22T13:43:21.224Z,96557.88
2022-11-22T13:45:58.420Z,96552.59
2022-11-22T13:48:40.215Z,96564.88
2022-11-22T13:51:08.888Z,96542.00
2022-11-22T13:53:37.957Z,96569.06
2022-11-22T13:56:16.418Z,96565.56
2022-11-22T13:58:52.617Z,96568.53
2022-11-22T14:01:34.677Z,96568.19
2022-11-22T14:04:16.740Z,96558.31
2022-11-22T14:06:53.789Z,96568.19
2022-11-22T14:09:34.538Z,96563.06
2022-11-22T14:12:10.346Z,96570.94
2022-11-22T14:15:14.265Z,96574.03
2022-11-22T14:17:55.317Z,96570.59
2022-11-22T14:20:35.870Z,96575.84
2022-11-22T14:23:06.756Z,96576.78
2022-11-22T14:25:55.070Z,96573.97
2022-11-22T14:28:27.515Z,96567.47
2022-11-22T14:30:57.848Z,96577.06
2022-11-22T14:33:28.836Z,96564.38
2022-11-22T14:36:07.553Z,96572.31
2022-11-22T14:38:40.111Z,96568.91
2022-11-22T14:41:28.383Z,96573.03
2022-11-22T14:44:01.328Z,96566.84
2022-11-22T14:46:53.678Z,96571.31
2022-11-22T14:49:36.043Z,96573.09
2022-11-22T14:52:02.879Z,96548.78
2022-11-22T14:54:43.245Z,96560.16
2022-11-22T14:57:17.065Z,96577.25
2022-11-22T15:00:07.149Z,96546.28
2022-11-22T15:02:48.843Z,96581.84
2022-11-22T15:09:12.949Z,96572.47
2022-11-22T15:09:42.071Z,96577.09
2022-11-22T15:12:00.078Z,96582.03
2022-11-22T15:14:48.787Z,96587.13
2022-11-22T15:57:44.976Z,96616.34
2022-11-22T16:00:27.674Z,96617.38
2022-11-22T16:02:57.413Z,96589.44
2022-11-22T16:06:07.337Z,96575.34
2022-11-22T16:08:17.290Z,96609.63
2022-11-22T16:10:53.543Z,96604.06
2022-11-22T16:13:20.053Z,96624.56
2022-11-22T16:16:11.539Z,96628.78
2022-11-22T16:18:39.560Z,96620.91
2022-11-22T16:21:11.614Z,96617.66
2022-11-22T16:23:41.682Z,96619.75
2022-11-22T16:26:30.747Z,96608.34
2022-11-22T16:29:29.187Z,96607.34
2022-11-22T16:32:15.551Z,96629.38
2022-11-22T16:34:43.430Z,96627.50
2022-11-22T16:37:36.158Z,96618.41
2022-11-22T16:40:05.760Z,96623.25
2022-11-22T16:42:35.150Z,96630.09
2022-11-22T16:45:04.202Z,96635.38
2022-11-22T16:47:33.571Z,96607.66
2022-11-22T16:50:00.109Z,96617.00
2022-11-22T16:52:26.650Z,96637.09
2022-11-22T16:54:56.196Z,96620.84
2022-11-22T16:57:23.661Z,96633.88
2022-11-22T16:59:50.392Z,96633.31
2022-11-22T17:02:18.256Z,96654.44
2022-11-22T17:04:49.122Z,96651.84
2022-11-22T17:07:16.022Z,96652.41
2022-11-22T17:09:42.640Z,96619.47
2022-11-22T17:12:27.799Z,96637.59
2022-11-22T17:14:57.127Z,96642.13
2022-11-22T17:17:26.305Z,96623.47
2022-11-22T17:19:55.513Z,96603.69
2022-11-22T17:22:26.016Z,96661.22
2022-11-22T17:24:56.486Z,96622.38
2022-11-22T17:27:26.139Z,96657.72
2022-11-22T17:29:55.651Z,96644.09
2022-11-22T17:32:25.112Z,96651.44
2022-11-22T17:34:56.040Z,96630.44
2022-11-22T17:37:29.394Z,96613.50
2022-11-22T17:39:55.918Z,96656.66
2022-11-22T17:42:24.187Z,96636.38
2022-11-22T17:44:53.063Z,96638.38
2022-11-22T17:47:19.768Z,96640.56
2022-11-22T17:49:46.308Z,96642.28
2022-11-22T17:52:12.879Z,96660.38
2022-11-22T17:54:41.083Z,96622.56
2022-11-22T17:57:07.672Z,96629.44
2022-11-22T17:59:34.912Z,96613.91
2022-11-22T18:02:01.824Z,96652.44
2022-11-22T18:04:28.429Z,96662.91
2022-11-22T18:06:55.108Z,96685.34
2022-11-22T18:09:21.932Z,96688.06
2022-11-22T18:11:48.623Z,96639.84
2022-11-22T18:14:15.156Z,96690.50
2022-11-22T18:16:41.697Z,96684.53
2022-11-22T18:19:08.299Z,96684.53
2022-11-22T18:21:34.949Z,96681.34
2022-11-22T18:24:01.626Z,96653.59
2022-11-22T18:26:39.268Z,96665.81
2022-11-22T18:31:56.765Z,96664.28
2022-11-22T18:34:27.491Z,96683.75
2022-11-22T18:37:00.296Z,96692.84
2022-11-22T18:39:29.135Z,96688.75
2022-11-22T18:41:55.878Z,96692.84
2022-11-22T18:44:26.539Z,96681.81
2022-11-22T18:46:55.903Z,96661.50
2022-11-22T18:49:24.418Z,96673.94
2022-11-22T18:51:53.462Z,96656.94
2022-11-22T18:54:25.883Z,96686.13
2022-11-22T18:56:56.311Z,96677.22
2022-11-22T18:59:26.067Z,96654.28
2022-11-22T19:01:55.042Z,96673.88
2022-11-22T19:04:23.975Z,96667.25
2022-11-22T19:06:51.651Z,96676.56
2022-11-22T19:09:18.795Z,96678.41
2022-11-22T19:11:45.301Z,96695.47
2022-11-22T19:14:11.876Z,96683.63
2022-11-22T19:16:38.428Z,96688.03
2022-11-22T19:19:04.954Z,96693.25
2022-11-22T19:21:31.538Z,96682.44
2022-11-22T19:23:58.153Z,96680.09
2022-11-22T19:26:28.572Z,96690.78
2022-11-22T19:28:59.729Z,96688.56
2022-11-22T19:31:29.147Z,96690.38
2022-11-22T19:33:59.449Z,96679.69
2022-11-22T19:36:34.056Z,96693.00
2022-11-22T19:39:05.640Z,96678.97
2022-11-22T19:41:32.651Z,96680.44
2022-11-22T19:43:59.723Z,96678.47
2022-11-22T19:46:27.098Z,96677.13
2022-11-22T19:48:59.095Z,96677.06
2022-11-22T19:51:30.951Z,96676.06
2022-11-22T19:54:00.083Z,96684.16
2022-11-22T19:56:37.979Z,96677.28
2022-11-22T19:59:07.159Z,96689.16
2022-11-22T20:01:35.294Z,96688.78
2022-11-22T20:04:04.928Z,96684.06
2022-11-22T20:06:32.956Z,96663.59
2022-11-22T20:09:11.372Z,96683.47
2022-11-22T20:11:43.904Z,96646.56
2022-11-22T20:14:10.643Z,96674.41
2022-11-22T20:19:59.737Z,96650.06
2022-11-22T20:22:28.541Z,96682.13
2022-11-22T20:24:55.028Z,96668.88
2022-11-22T20:27:24.702Z,96643.03
2022-11-22T20:29:51.497Z,96638.78
2022-11-22T20:32:18.241Z,96686.34
2022-11-22T20:34:44.767Z,96690.41
2022-11-22T20:37:11.331Z,96692.03
2022-11-22T20:39:37.971Z,96704.25
2022-11-22T20:42:32.420Z,96698.63
2022-11-22T20:44:51.488Z,96693.72
2022-11-22T20:47:18.049Z,96669.22
2022-11-22T20:49:45.736Z,96674.25
2022-11-22T20:52:12.398Z,96686.09
2022-11-22T20:54:38.881Z,96695.53
2022-11-22T20:57:05.412Z,96669.63
2022-11-22T20:59:32.717Z,96698.06
2022-11-22T21:02:06.360Z,96687.88
2022-11-22T21:04:35.466Z,96683.56
2022-11-22T21:07:01.960Z,96691.88
2022-11-22T21:09:30.931Z,96679.25
2022-11-22T21:11:59.830Z,96653.50
2022-11-22T21:14:26.409Z,96662.31
2022-11-22T21:16:52.899Z,96678.72
2022-11-22T21:19:19.439Z,96673.41
2022-11-22T21:21:45.923Z,96672.19
2022-11-22T21:24:13.650Z,96685.03
2022-11-22T21:26:40.715Z,96671.75
2022-11-22T21:29:15.959Z,96682.56
2022-11-22T21:31:42.941Z,96660.63
2022-11-22T21:34:09.565Z,96680.50
2022-11-22T21:36:36.056Z,96687.25
2022-11-22T21:39:02.549Z,96675.63
2022-11-22T21:41:39.710Z,96668.75
2022-11-22T21:44:07.345Z,96681.88
2022-11-22T21:46:33.920Z,96683.47
2022-11-22T21:49:03.164Z,96685.41
2022-11-22T21:51:32.589Z,96693.28
2022-11-22T21:54:02.563Z,96702.28
2022-11-22T21:56:32.244Z,96691.28
2022-11-22T21:59:02.160Z,96701.25
2022-11-22T22:01:32.210Z,96689.31
2022-11-22T22:04:02.616Z,96693.44
2022-11-22T22:06:32.560Z,96676.88
2022-11-22T22:09:02.869Z,96677.94
2022-11-22T22:11:30.914Z,96700.38
2022-11-22T22:14:01.633Z,96697.41
2022-11-22T22:16:29.476Z,96682.78
2022-11-22T22:18:56.067Z,96667.72
2022-11-22T22:21:23.028Z,96698.06
2022-11-22T22:23:49.782Z,96676.19
2022-11-22T22:26:17.525Z,96681.47
2022-11-22T22:28:45.478Z,96650.63
2022-11-22T22:31:21.963Z,96694.59
2022-11-22T22:33:56.695Z,96692.31
2022-11-22T22:36:25.371Z,96688.53
2022-11-22T22:38:52.202Z,96689.97
2022-11-22T22:41:19.002Z,96688.16
2022-11-22T22:43:47.696Z,96683.25
2022-11-22T22:46:27.162Z,96679.06
2022-11-22T22:48:57.244Z,96681.94
2022-11-22T22:51:31.828Z,96700.59
2022-11-22T22:54:01.873Z,96696.00
2022-11-22T22:56:33.567Z,96691.69
2022-11-22T22:59:05.041Z,96687.75
2022-11-22T23:01:32.677Z,96674.75
2022-11-22T23:04:02.559Z,96692.28
2022-11-22T23:06:35.701Z,96693.75
2022-11-22T23:09:06.091Z,96686.88
2022-11-22T23:11:54.015Z,96688.22
2022-11-22T23:14:23.019Z,96682.38
2022-11-22T23:16:54.503Z,96679.97
2022-11-22T23:19:24.585Z,96674.84
2022-11-22T23:21:51.102Z,96678.50
2022-11-22T23:24:17.649Z,96677.47
2022-11-22T23:26:44.244Z,96655.81
2022-11-22T23:29:10.986Z,96672.25
2022-11-22T23:31:37.502Z,96680.34
2022-11-22T23:34:07.138Z,96648.69
2022-11-22T23:36:40.707Z,96666.91
2022-11-22T23:39:08.045Z,96661.66
2022-11-22T23:41:37.967Z,96660.94
2022-11-22T23:44:07.755Z,96666.06
2022-11-22T23:46:35.273Z,96658.13
2022-11-22T23:49:06.189Z,96646.50
2022-11-22T23:51:37.012Z,96648.63
2022-11-22T23:54:06.036Z,96647.16
2022-11-22T23:56:37.212Z,96621.25
2022-11-22T23:59:06.040Z,96647.28
